Philip, SD

7:34 AM MDT on October 31, 2014 (GMT -0600)
Ellsworth Air Force Base | Change Station
CLOSE
Current Station
Airport
Location: Ellsworth AFB,
Elevation: 3278 ft
Nearby Weather Stations
Active Advisory: Wind Advisory

Elev 3278 ft 44.15 °N, 103.10 °W | Updated 36 minutes ago

Overcast
Overcast
32 °F
Feels Like 18 °F
N
23
Wind Variable Wind from South
Gusts 26 mph

Today
High -- | Low -- °F
--% Chance of Precip.
Yesterday
High -- | Low -- °F
Precip. -- in
7:21 AM 5:37 PM
First Quarter, 55% visible
Pressure 30.45 in
Visibility 10.0 miles
Clouds Overcast 400 ft
Windchill 18 °F
Dew Point 30 °F
Humidity 94%
Rainfall 0.00 in
Snow Depth Not available.
UV 0 out of 12
Pollen .50 out of 12
Air Quality Not available.
Flu Activity Not available.
METAR KRCA 311258Z AUTO 18020G23KT 10SM OVC004 00/M01 A3035 RMK AO2 PK WND 18027/46 SLP310 T10031012 $

More Conditions Fewer Conditions

Pressure 30.45 in
Visibility 10.0 miles
Clouds Overcast 400 ft
Windchill 18 °F
Dew Point 30 °F
Humidity 94%
Rainfall 0.00 in
Snow Depth Not available.
UV 0 out of 12
Pollen .50 out of 12
Air Quality Not available.
Flu Activity Not available.
METAR KRCA 311258Z AUTO 18020G23KT 10SM OVC004 00/M01 A3035 RMK AO2 PK WND 18027/46 SLP310 T10031012 $

More Conditions Fewer Conditions

10-Day Weather Forecast

Almanac

Astronomy

Oct. 31, 2014 Rise Set
Actual Time
Civil Twilight
Nautical Twilight
Astronomical Twilight
Moon
Length of Visible Light
Length of Day
Tomorrow will be .
, % of the Moon is Illuminated

Today's Extremes

State Highs State Lows

Community

WunderPhotos

Upload Photos

1,766,610 photos uploaded!

WunderBlogs® & News

Nearby

Air Quality

  Air Quality AQ Index Pollutant
Not available.

Snow Depth

Station Depth Elevation

Earthquake Activity

City Distance Mag. Time & Date
Minimum magnitude displayed is 2.5.

Coastal Water Temperatures

Place Temperature

Nearby Weather Stations